createdAt,value
2022-11-21T00:00:10.909Z,98821.75
2022-11-21T00:05:12.677Z,98808.03
2022-11-21T00:10:14.547Z,98799.44
2022-11-21T00:15:16.178Z,98787.41
2022-11-21T00:20:19.434Z,98780.53
2022-11-21T00:25:21.115Z,98759.06
2022-11-21T00:30:22.858Z,98745.34
2022-11-21T00:35:24.847Z,98736.75
2022-11-21T00:40:26.535Z,98725.63
2022-11-21T00:45:28.892Z,98707.50
2022-11-21T00:50:30.644Z,98694.72
2022-11-21T00:55:32.299Z,98693.72
2022-11-21T01:00:34.098Z,98682.50
2022-11-21T01:05:36.066Z,98665.28
2022-11-21T01:10:37.741Z,98642.13
2022-11-21T01:15:39.546Z,98639.50
2022-11-21T01:20:41.266Z,98629.22
2022-11-21T01:25:43.007Z,98622.28
2022-11-21T01:30:44.713Z,98617.19
2022-11-21T01:35:46.408Z,98606.78
2022-11-21T01:40:48.068Z,98601.63
2022-11-21T01:46:00.016Z,98599.84
2022-11-21T01:51:18.589Z,98600.78
2022-11-21T01:56:21.900Z,98596.25
2022-11-21T02:01:23.929Z,98587.66
2022-11-21T02:06:25.845Z,98577.41
2022-11-21T02:11:36.434Z,98569.47
2022-11-21T02:16:38.803Z,98567.69
2022-11-21T02:21:53.297Z,98563.34
2022-11-21T02:26:55.193Z,98555.38
2022-11-21T02:32:02.920Z,98553.72
2022-11-21T02:37:04.563Z,98551.16
2022-11-21T02:42:23.911Z,98538.28
2022-11-21T02:47:26.199Z,98535.78
2022-11-21T02:52:27.822Z,98533.13
2022-11-21T02:57:29.530Z,98528.88
2022-11-21T03:02:31.185Z,98531.28
2022-11-21T03:07:33.031Z,98521.03
2022-11-21T03:12:42.196Z,98523.59
2022-11-21T03:17:43.879Z,98520.97
2022-11-21T03:22:45.543Z,98511.47
2022-11-21T03:27:50.904Z,98512.47
2022-11-21T03:32:55.941Z,98497.81
2022-11-21T03:37:57.714Z,98496.97
2022-11-21T03:43:04.764Z,98485.78
2022-11-21T03:48:06.687Z,98483.09
2022-11-21T03:53:08.374Z,98483.69
2022-11-21T03:58:10.003Z,98477.66
2022-11-21T04:03:11.692Z,98472.41
2022-11-21T04:08:13.319Z,98471.44
2022-11-21T04:13:15.348Z,98469.91
2022-11-21T04:18:17.152Z,98467.53
2022-11-21T04:23:19.409Z,98467.34
2022-11-21T04:28:21.677Z,98458.41
2022-11-21T04:33:23.287Z,98449.97
2022-11-21T04:38:25.168Z,98441.41
2022-11-21T04:43:26.845Z,98438.75
2022-11-21T04:48:28.547Z,98442.41
2022-11-21T04:53:30.158Z,98436.47
2022-11-21T04:58:32.084Z,98432.72
2022-11-21T05:03:33.870Z,98429.56
2022-11-21T05:08:35.645Z,98420.84
2022-11-21T05:13:37.236Z,98432.00
2022-11-21T05:18:38.912Z,98450.16
2022-11-21T05:23:40.700Z,98439.81
2022-11-21T05:28:42.499Z,98438.41
2022-11-21T05:33:44.235Z,98445.69
2022-11-21T05:38:46.000Z,98453.88
2022-11-21T05:43:47.757Z,98457.41
2022-11-21T05:48:50.224Z,98457.38
2022-11-21T05:53:51.875Z,98461.84
2022-11-21T05:58:58.337Z,98468.81
2022-11-21T06:04:01.797Z,98472.94
2022-11-21T06:09:04.886Z,98480.66
2022-11-21T06:14:06.621Z,98494.81
2022-11-21T06:19:08.354Z,98502.03
2022-11-21T06:24:10.134Z,98507.31
2022-11-21T06:29:12.215Z,98518.47
2022-11-21T06:34:15.501Z,98527.88
2022-11-21T06:39:17.336Z,98543.53
2022-11-21T06:44:20.250Z,98546.97
2022-11-21T06:49:24.856Z,98564.88
2022-11-21T06:54:26.807Z,98573.06
2022-11-21T06:59:28.497Z,98571.28
2022-11-21T07:04:30.345Z,98581.47
2022-11-21T07:09:34.315Z,98598.44
2022-11-21T07:14:36.032Z,98610.00
2022-11-21T07:19:40.864Z,98618.75
2022-11-21T07:24:42.768Z,98639.16
2022-11-21T07:29:44.603Z,98653.16
2022-11-21T07:34:46.168Z,98659.06
2022-11-21T07:39:47.972Z,98678.09
2022-11-21T07:44:49.565Z,98691.22
2022-11-21T07:49:51.240Z,98692.81
2022-11-21T07:54:52.880Z,98704.19
2022-11-21T07:59:55.077Z,98712.25
2022-11-21T08:04:56.724Z,98731.25
2022-11-21T08:09:58.433Z,98738.38
2022-11-21T08:15:00.034Z,98751.41
2022-11-21T08:20:02.015Z,98759.97
2022-11-21T08:25:03.870Z,98751.44
2022-11-21T08:30:07.381Z,98775.53
2022-11-21T08:35:09.285Z,98787.63
2022-11-21T08:40:11.340Z,98799.72
2022-11-21T08:45:13.042Z,98809.09
2022-11-21T08:50:15.221Z,98813.41
2022-11-21T08:55:16.982Z,98827.34
2022-11-21T09:00:18.832Z,98836.00
2022-11-21T09:05:20.583Z,98833.47
2022-11-21T09:10:22.239Z,98843.66
2022-11-21T09:15:44.490Z,98848.00
2022-11-21T09:20:47.343Z,98859.25
2022-11-21T09:25:49.080Z,98854.91
2022-11-21T09:30:50.714Z,98872.97
2022-11-21T09:35:52.307Z,98864.31
2022-11-21T09:41:29.621Z,98877.13
2022-11-21T09:46:37.611Z,98881.53
2022-11-21T09:51:42.683Z,98875.56
2022-11-21T09:56:44.634Z,98884.97
2022-11-21T10:01:47.196Z,98889.28
2022-11-21T10:06:51.830Z,98896.13
2022-11-21T10:12:41.476Z,98897.84
2022-11-21T10:17:57.914Z,98907.28
2022-11-21T10:23:08.577Z,98899.53
2022-11-21T10:28:22.655Z,98899.53
2022-11-21T10:33:32.601Z,98903.84
2022-11-21T10:38:40.165Z,98920.19
2022-11-21T10:44:23.382Z,98921.84
2022-11-21T10:49:27.917Z,98927.13
2022-11-21T10:54:32.787Z,98923.66
2022-11-21T10:59:37.059Z,98926.19
2022-11-21T11:04:47.377Z,98927.91
2022-11-21T11:09:49.335Z,98923.56
2022-11-21T11:14:56.756Z,98926.16
2022-11-21T11:20:27.078Z,98927.06
2022-11-21T11:25:34.915Z,98919.22
2022-11-21T11:30:37.843Z,98918.38
2022-11-21T11:35:40.429Z,98911.53
2022-11-21T11:40:44.875Z,98906.34
2022-11-21T11:46:11.042Z,98914.09
2022-11-21T11:51:35.242Z,98908.13
2022-11-21T11:56:38.618Z,98901.19
2022-11-21T12:02:11.677Z,98901.16
2022-11-21T12:13:16.350Z,98905.31
2022-11-21T12:18:20.904Z,98903.66
2022-11-21T12:23:28.342Z,98907.03
2022-11-21T12:28:38.061Z,98905.44
2022-11-21T12:33:52.231Z,98909.69
2022-11-21T12:39:36.233Z,98906.16
2022-11-21T12:45:03.414Z,98898.50
2022-11-21T12:50:45.035Z,98901.97
2022-11-21T12:55:48.002Z,98901.97
2022-11-21T13:00:50.195Z,98897.69
2022-11-21T13:05:56.056Z,98890.78
2022-11-21T13:11:25.354Z,98888.19
2022-11-21T13:16:37.424Z,98892.47
2022-11-21T13:21:48.249Z,98896.75
2022-11-21T13:26:54.039Z,98875.19
2022-11-21T13:31:55.677Z,98874.34
2022-11-21T13:36:57.654Z,98869.06
2022-11-21T13:42:20.557Z,98867.31
2022-11-21T13:47:25.713Z,98867.25
2022-11-21T13:53:04.519Z,98852.22
2022-11-21T13:58:15.499Z,98846.38
2022-11-21T14:03:40.249Z,98839.66
2022-11-21T14:08:41.971Z,98843.81
2022-11-21T14:13:48.958Z,98848.06
2022-11-21T14:18:51.144Z,98845.50
2022-11-21T14:23:57.377Z,98846.25
2022-11-21T14:29:23.854Z,98845.66
2022-11-21T14:34:30.781Z,98837.66
2022-11-21T14:39:40.793Z,98836.63
2022-11-21T14:44:45.152Z,98833.13
2022-11-21T14:49:50.898Z,98840.97
2022-11-21T15:00:57.911Z,98829.88
2022-11-21T15:06:02.158Z,98829.16
2022-11-21T15:11:08.852Z,98827.34
2022-11-21T15:16:10.955Z,98822.19
2022-11-21T15:21:16.263Z,98822.13
2022-11-21T15:26:35.626Z,98822.25
2022-11-21T15:31:37.307Z,98816.50
2022-11-21T15:36:39.000Z,98808.47
2022-11-21T15:41:40.652Z,98813.66
2022-11-21T15:46:42.453Z,98806.78
2022-11-21T15:57:11.229Z,98801.09
2022-11-21T16:02:14.386Z,98789.09
2022-11-21T16:07:16.288Z,98790.78
2022-11-21T16:12:18.052Z,98780.41
2022-11-21T16:17:19.713Z,98775.06
2022-11-21T16:22:21.370Z,98766.56
2022-11-21T16:27:23.065Z,98762.09
2022-11-21T16:32:27.986Z,98754.03
2022-11-21T16:37:31.905Z,98745.78
2022-11-21T16:42:33.530Z,98743.22
2022-11-21T16:47:37.149Z,98738.72
2022-11-21T16:52:38.795Z,98738.91
2022-11-21T16:57:41.119Z,98729.47
2022-11-21T17:02:42.793Z,98719.63
2022-11-21T17:07:44.840Z,98723.31
2022-11-21T17:12:47.156Z,98715.66
2022-11-21T17:17:48.932Z,98706.94
2022-11-21T17:22:50.629Z,98711.28
2022-11-21T17:27:52.260Z,98705.25
2022-11-21T17:32:53.957Z,98705.31
2022-11-21T17:37:55.556Z,98705.25
2022-11-21T17:42:57.204Z,98702.47
2022-11-21T17:47:58.885Z,98706.09
2022-11-21T17:53:01.865Z,98699.06
2022-11-21T17:58:03.682Z,98696.53
2022-11-21T18:03:05.333Z,98694.06
2022-11-21T18:08:06.919Z,98685.81
2022-11-21T18:13:09.441Z,98693.44
2022-11-21T18:18:11.579Z,98680.78
2022-11-21T18:23:13.338Z,98681.59
2022-11-21T18:28:14.967Z,98674.19
2022-11-21T18:33:18.946Z,98670.41
2022-11-21T18:38:46.844Z,98655.25
2022-11-21T18:43:44.755Z,98645.69
2022-11-21T18:49:02.066Z,98626.03
2022-11-21T18:54:10.459Z,98608.13
2022-11-21T18:59:12.246Z,98595.41
2022-11-21T19:04:13.948Z,98585.13
2022-11-21T19:09:15.686Z,98579.09
2022-11-21T19:14:17.337Z,98576.94
2022-11-21T19:19:35.547Z,98572.13
2022-11-21T19:24:37.514Z,98554.97
2022-11-21T19:29:39.926Z,98550.75
2022-11-21T19:34:41.662Z,98547.97
2022-11-21T19:39:43.297Z,98537.00
2022-11-21T19:44:44.971Z,98545.97
2022-11-21T19:49:46.573Z,98536.03
2022-11-21T19:54:48.292Z,98534.31
2022-11-21T19:59:50.243Z,98540.53
2022-11-21T20:04:54.165Z,98535.38
2022-11-21T20:09:55.819Z,98528.31
2022-11-21T20:14:57.496Z,98545.69
2022-11-21T20:19:59.944Z,98538.00
2022-11-21T20:25:01.593Z,98545.59
2022-11-21T20:30:04.589Z,98542.34
2022-11-21T20:35:06.386Z,98543.84
2022-11-21T20:40:09.498Z,98547.38
2022-11-21T20:46:01.315Z,98554.47
2022-11-21T20:51:25.183Z,98545.16
2022-11-21T20:56:00.357Z,98546.91
2022-11-21T21:01:02.340Z,98541.84
2022-11-21T21:06:07.279Z,98529.03
2022-11-21T21:11:36.895Z,98533.03
2022-11-21T21:16:36.260Z,98544.16
2022-11-21T21:21:38.050Z,98544.25
2022-11-21T21:26:46.119Z,98545.22
2022-11-21T21:31:52.637Z,98543.53
2022-11-21T21:36:54.527Z,98539.34
2022-11-21T21:41:56.175Z,98539.28
2022-11-21T21:46:57.961Z,98551.44
2022-11-21T21:51:59.582Z,98554.00
2022-11-21T21:57:01.770Z,98557.47
2022-11-21T22:02:04.367Z,98560.94
2022-11-21T22:07:08.696Z,98545.53
2022-11-21T22:12:10.494Z,98546.25
2022-11-21T22:17:12.068Z,98533.34
2022-11-21T22:22:13.960Z,98535.06
2022-11-21T22:27:15.618Z,98521.34
2022-11-21T22:32:19.884Z,98516.94
2022-11-21T22:37:21.763Z,98503.22
2022-11-21T22:42:23.404Z,98508.41
2022-11-21T22:47:25.013Z,98491.13
2022-11-21T22:52:26.654Z,98477.94
2022-11-21T22:57:28.363Z,98478.50
2022-11-21T23:02:30.024Z,98464.50
2022-11-21T23:07:31.995Z,98466.78
2022-11-21T23:12:37.179Z,98457.19
2022-11-21T23:17:38.863Z,98456.19
2022-11-21T23:22:40.438Z,98463.00
2022-11-21T23:27:42.070Z,98461.22
2022-11-21T23:32:43.775Z,98450.63
2022-11-21T23:37:45.448Z,98439.41
2022-11-21T23:42:47.152Z,98441.13
2022-11-21T23:47:48.832Z,98435.97
2022-11-21T23:52:50.788Z,98423.81
2022-11-21T23:57:52.371Z,98418.09
